sensor_id;sensor_type;location;lat;lon;timestamp;pressure;altitude;pressure_sealevel;temperature;humidity
80511;BME280;69840;53.040;8.600;2023-06-22T00:00:02;102073.59;;;17.03;83.87
80511;BME280;69840;53.040;8.600;2023-06-22T00:04:23;102077.28;;;17.02;84.17
80511;BME280;69840;53.040;8.600;2023-06-22T00:08:35;102080.13;;;17.00;84.27
80511;BME280;69840;53.040;8.600;2023-06-22T00:12:48;102077.28;;;17.02;84.23
80511;BME280;69840;53.040;8.600;2023-06-22T00:17:00;102078.09;;;17.02;83.88
80511;BME280;69840;53.040;8.600;2023-06-22T00:21:13;102081.16;;;16.99;83.94
80511;BME280;69840;53.040;8.600;2023-06-22T00:25:26;102073.13;;;16.99;84.39
80511;BME280;69840;53.040;8.600;2023-06-22T00:29:38;102066.13;;;16.98;84.31
80511;BME280;69840;53.040;8.600;2023-06-22T00:33:51;102071.31;;;16.92;84.58
80511;BME280;69840;53.040;8.600;2023-06-22T00:38:03;102076.66;;;16.92;84.36
80511;BME280;69840;53.040;8.600;2023-06-22T00:42:15;102066.03;;;16.83;84.58
80511;BME280;69840;53.040;8.600;2023-06-22T00:46:28;102062.97;;;16.87;85.39
80511;BME280;69840;53.040;8.600;2023-06-22T00:50:41;102068.31;;;16.87;84.84
80511;BME280;69840;53.040;8.600;2023-06-22T00:54:53;102067.38;;;16.79;84.78
80511;BME280;69840;53.040;8.600;2023-06-22T00:59:06;102061.38;;;16.69;85.40
80511;BME280;69840;53.040;8.600;2023-06-22T01:03:19;102063.06;;;16.70;85.62
80511;BME280;69840;53.040;8.600;2023-06-22T01:07:42;102054.88;;;16.72;85.18
80511;BME280;69840;53.040;8.600;2023-06-22T01:12:02;102067.22;;;16.73;85.61
80511;BME280;69840;53.040;8.600;2023-06-22T01:16:20;102070.59;;;16.67;85.32
80511;BME280;69840;53.040;8.600;2023-06-22T01:20:36;102052.75;;;16.51;86.12
80511;BME280;69840;53.040;8.600;2023-06-22T01:25:12;102063.44;;;16.51;86.36
80511;BME280;69840;53.040;8.600;2023-06-22T01:29:26;102059.44;;;16.47;86.27
80511;BME280;69840;53.040;8.600;2023-06-22T01:33:42;102059.81;;;16.36;85.98
80511;BME280;69840;53.040;8.600;2023-06-22T01:37:58;102051.97;;;16.34;86.59
80511;BME280;69840;53.040;8.600;2023-06-22T01:42:11;102042.47;;;16.32;85.94
80511;BME280;69840;53.040;8.600;2023-06-22T01:46:25;102035.97;;;16.26;86.32
80511;BME280;69840;53.040;8.600;2023-06-22T01:50:37;102024.78;;;16.23;86.45
80511;BME280;69840;53.040;8.600;2023-06-22T01:54:50;102023.66;;;16.17;86.64
80511;BME280;69840;53.040;8.600;2023-06-22T01:59:26;102029.50;;;16.12;86.81
80511;BME280;69840;53.040;8.600;2023-06-22T02:03:44;102033.16;;;16.11;87.46
80511;BME280;69840;53.040;8.600;2023-06-22T02:08:11;102035.31;;;16.08;87.35
80511;BME280;69840;53.040;8.600;2023-06-22T02:12:26;102037.81;;;16.09;87.01
80511;BME280;69840;53.040;8.600;2023-06-22T02:16:40;102032.34;;;16.03;87.21
80511;BME280;69840;53.040;8.600;2023-06-22T02:20:54;102037.50;;;15.96;87.33
80511;BME280;69840;53.040;8.600;2023-06-22T02:25:07;102046.00;;;15.92;87.51
80511;BME280;69840;53.040;8.600;2023-06-22T02:29:20;102047.00;;;15.91;87.74
80511;BME280;69840;53.040;8.600;2023-06-22T02:33:33;102043.69;;;15.89;87.46
80511;BME280;69840;53.040;8.600;2023-06-22T02:37:45;102046.19;;;15.82;87.49
80511;BME280;69840;53.040;8.600;2023-06-22T02:41:58;102039.50;;;15.78;87.51
80511;BME280;69840;53.040;8.600;2023-06-22T02:46:11;102036.19;;;15.76;87.66
80511;BME280;69840;53.040;8.600;2023-06-22T02:50:24;102031.38;;;15.71;87.51
80511;BME280;69840;53.040;8.600;2023-06-22T02:54:38;102035.88;;;15.71;88.20
80511;BME280;69840;53.040;8.600;2023-06-22T02:58:51;102042.53;;;15.67;87.85
80511;BME280;69840;53.040;8.600;2023-06-22T03:03:05;102048.34;;;15.62;88.31
80511;BME280;69840;53.040;8.600;2023-06-22T03:07:17;102049.84;;;15.65;88.48
80511;BME280;69840;53.040;8.600;2023-06-22T03:11:31;102045.19;;;15.67;88.45
80511;BME280;69840;53.040;8.600;2023-06-22T03:15:44;102044.69;;;15.71;88.66
80511;BME280;69840;53.040;8.600;2023-06-22T03:19:57;102054.38;;;15.72;88.42
80511;BME280;69840;53.040;8.600;2023-06-22T03:24:10;102046.69;;;15.69;88.48
80511;BME280;69840;53.040;8.600;2023-06-22T03:28:23;102047.38;;;15.71;88.99
80511;BME280;69840;53.040;8.600;2023-06-22T03:32:35;102054.69;;;15.77;88.72
80511;BME280;69840;53.040;8.600;2023-06-22T03:36:50;102061.34;;;15.82;88.31
80511;BME280;69840;53.040;8.600;2023-06-22T03:41:02;102063.69;;;15.85;88.74
80511;BME280;69840;53.040;8.600;2023-06-22T03:45:15;102066.88;;;15.88;89.02
80511;BME280;69840;53.040;8.600;2023-06-22T03:49:27;102068.84;;;15.94;88.62
80511;BME280;69840;53.040;8.600;2023-06-22T03:53:40;102064.53;;;16.01;88.55
80511;BME280;69840;53.040;8.600;2023-06-22T03:57:53;102068.00;;;16.10;88.06
80511;BME280;69840;53.040;8.600;2023-06-22T04:02:05;102066.34;;;16.17;88.39
80511;BME280;69840;53.040;8.600;2023-06-22T04:06:18;102068.97;;;16.25;88.75
80511;BME280;69840;53.040;8.600;2023-06-22T04:10:30;102072.47;;;16.34;88.14
80511;BME280;69840;53.040;8.600;2023-06-22T04:14:43;102073.63;;;16.39;87.63
80511;BME280;69840;53.040;8.600;2023-06-22T04:18:55;102081.44;;;16.49;87.47
80511;BME280;69840;53.040;8.600;2023-06-22T04:23:08;102084.09;;;16.57;87.60
80511;BME280;69840;53.040;8.600;2023-06-22T04:27:20;102075.94;;;16.67;87.54
80511;BME280;69840;53.040;8.600;2023-06-22T04:31:33;102075.88;;;16.75;87.63
80511;BME280;69840;53.040;8.600;2023-06-22T04:35:46;102070.34;;;16.84;86.45
80511;BME280;69840;53.040;8.600;2023-06-22T04:39:58;102077.16;;;16.95;86.63
80511;BME280;69840;53.040;8.600;2023-06-22T04:44:15;102078.59;;;17.06;86.61
80511;BME280;69840;53.040;8.600;2023-06-22T04:48:29;102082.69;;;17.25;86.08
80511;BME280;69840;53.040;8.600;2023-06-22T04:52:41;102080.31;;;17.52;84.94
80511;BME280;69840;53.040;8.600;2023-06-22T04:56:54;102077.41;;;17.70;83.87
80511;BME280;69840;53.040;8.600;2023-06-22T05:01:06;102076.53;;;17.78;83.33
80511;BME280;69840;53.040;8.600;2023-06-22T05:05:19;102068.44;;;18.01;83.04
80511;BME280;69840;53.040;8.600;2023-06-22T05:09:31;102062.91;;;18.40;81.08
80511;BME280;69840;53.040;8.600;2023-06-22T05:13:44;102066.06;;;18.87;79.22
80511;BME280;69840;53.040;8.600;2023-06-22T05:17:56;102062.84;;;19.71;76.95
80511;BME280;69840;53.040;8.600;2023-06-22T05:22:09;102060.03;;;20.28;74.49
80511;BME280;69840;53.040;8.600;2023-06-22T05:26:22;102064.75;;;20.54;71.29
80511;BME280;69840;53.040;8.600;2023-06-22T05:30:34;102070.63;;;20.71;69.74
80511;BME280;69840;53.040;8.600;2023-06-22T05:34:47;102054.84;;;21.02;70.26
80511;BME280;69840;53.040;8.600;2023-06-22T05:39:10;102062.13;;;21.08;69.58
80511;BME280;69840;53.040;8.600;2023-06-22T05:43:23;102055.91;;;21.08;68.36
80511;BME280;69840;53.040;8.600;2023-06-22T05:47:35;102060.97;;;21.24;69.41
80511;BME280;69840;53.040;8.600;2023-06-22T05:51:48;102057.25;;;21.25;66.08
80511;BME280;69840;53.040;8.600;2023-06-22T05:56:00;102052.47;;;21.27;67.63
80511;BME280;69840;53.040;8.600;2023-06-22T06:00:13;102052.19;;;21.09;65.14
80511;BME280;69840;53.040;8.600;2023-06-22T06:04:26;102048.13;;;20.78;64.04
80511;BME280;69840;53.040;8.600;2023-06-22T06:08:39;102049.84;;;20.45;66.25
80511;BME280;69840;53.040;8.600;2023-06-22T06:12:52;102043.47;;;20.24;66.69
80511;BME280;69840;53.040;8.600;2023-06-22T06:17:04;102058.56;;;20.25;67.88
80511;BME280;69840;53.040;8.600;2023-06-22T06:21:17;102048.44;;;20.27;69.18
80511;BME280;69840;53.040;8.600;2023-06-22T06:25:29;102049.47;;;20.54;69.30
80511;BME280;69840;53.040;8.600;2023-06-22T06:29:42;102050.59;;;20.73;67.90
80511;BME280;69840;53.040;8.600;2023-06-22T06:33:55;102050.25;;;20.89;66.71
80511;BME280;69840;53.040;8.600;2023-06-22T06:38:07;102042.22;;;21.02;67.20
80511;BME280;69840;53.040;8.600;2023-06-22T06:42:20;102047.66;;;21.16;65.81
80511;BME280;69840;53.040;8.600;2023-06-22T06:46:33;102043.56;;;21.20;64.72
80511;BME280;69840;53.040;8.600;2023-06-22T06:50:45;102053.31;;;21.34;65.70
80511;BME280;69840;53.040;8.600;2023-06-22T06:54:58;102044.66;;;21.52;64.01
80511;BME280;69840;53.040;8.600;2023-06-22T06:59:10;102052.31;;;21.61;65.63
80511;BME280;69840;53.040;8.600;2023-06-22T07:03:23;102046.31;;;21.79;63.96
80511;BME280;69840;53.040;8.600;2023-06-22T07:07:36;102040.31;;;21.97;64.45
80511;BME280;69840;53.040;8.600;2023-06-22T07:11:49;102046.97;;;22.08;61.88
80511;BME280;69840;53.040;8.600;2023-06-22T07:16:02;102049.66;;;22.14;61.04
80511;BME280;69840;53.040;8.600;2023-06-22T07:20:14;102047.19;;;22.13;62.61
80511;BME280;69840;53.040;8.600;2023-06-22T07:24:27;102038.19;;;22.45;61.44
80511;BME280;69840;53.040;8.600;2023-06-22T07:28:39;102033.84;;;22.44;62.14
80511;BME280;69840;53.040;8.600;2023-06-22T07:32:52;102038.94;;;22.79;60.95
80511;BME280;69840;53.040;8.600;2023-06-22T07:37:04;102033.97;;;22.82;60.53
80511;BME280;69840;53.040;8.600;2023-06-22T07:41:17;102044.69;;;22.95;58.84
80511;BME280;69840;53.040;8.600;2023-06-22T07:45:30;102033.41;;;23.12;59.06
80511;BME280;69840;53.040;8.600;2023-06-22T07:49:42;102024.69;;;23.09;58.59
80511;BME280;69840;53.040;8.600;2023-06-22T07:53:55;102025.84;;;23.27;59.24
80511;BME280;69840;53.040;8.600;2023-06-22T07:58:07;102023.47;;;23.37;59.33
80511;BME280;69840;53.040;8.600;2023-06-22T08:02:20;102015.16;;;23.38;60.19
80511;BME280;69840;53.040;8.600;2023-06-22T08:06:33;102010.94;;;23.49;58.68
80511;BME280;69840;53.040;8.600;2023-06-22T08:10:46;102018.13;;;23.62;58.80
80511;BME280;69840;53.040;8.600;2023-06-22T08:14:58;102001.25;;;23.41;58.12
80511;BME280;69840;53.040;8.600;2023-06-22T08:19:11;101997.59;;;23.61;59.23
80511;BME280;69840;53.040;8.600;2023-06-22T08:23:23;102000.22;;;23.67;57.11
80511;BME280;69840;53.040;8.600;2023-06-22T08:27:36;101989.94;;;24.01;58.14
80511;BME280;69840;53.040;8.600;2023-06-22T08:31:48;101998.00;;;24.07;57.68
80511;BME280;69840;53.040;8.600;2023-06-22T08:36:01;101986.81;;;24.22;57.11
80511;BME280;69840;53.040;8.600;2023-06-22T08:40:13;101987.94;;;24.14;57.53
80511;BME280;69840;53.040;8.600;2023-06-22T08:44:26;101983.84;;;24.30;57.51
80511;BME280;69840;53.040;8.600;2023-06-22T08:48:38;101985.88;;;24.53;55.63
80511;BME280;69840;53.040;8.600;2023-06-22T08:52:51;101986.53;;;24.67;56.25
80511;BME280;69840;53.040;8.600;2023-06-22T08:57:04;101976.19;;;24.45;54.57
80511;BME280;69840;53.040;8.600;2023-06-22T09:01:16;101972.56;;;24.70;54.13
80511;BME280;69840;53.040;8.600;2023-06-22T09:05:29;101969.97;;;24.75;54.26
80511;BME280;69840;53.040;8.600;2023-06-22T09:09:41;101973.63;;;24.99;52.58
80511;BME280;69840;53.040;8.600;2023-06-22T09:13:54;101966.19;;;25.36;51.00
80511;BME280;69840;53.040;8.600;2023-06-22T09:18:10;101969.91;;;25.65;51.74
80511;BME280;69840;53.040;8.600;2023-06-22T09:22:22;101955.56;;;25.64;51.24
80511;BME280;69840;53.040;8.600;2023-06-22T09:26:35;101957.56;;;25.80;50.58
80511;BME280;69840;53.040;8.600;2023-06-22T09:30:47;101949.97;;;25.82;51.84
80511;BME280;69840;53.040;8.600;2023-06-22T09:35:04;101947.88;;;25.84;51.49
80511;BME280;69840;53.040;8.600;2023-06-22T09:39:20;101933.56;;;26.24;50.87
80511;BME280;69840;53.040;8.600;2023-06-22T09:43:33;101931.84;;;26.46;50.03
80511;BME280;69840;53.040;8.600;2023-06-22T09:47:45;101935.69;;;26.22;47.58
80511;BME280;69840;53.040;8.600;2023-06-22T09:51:58;101931.53;;;26.71;49.77
80511;BME280;69840;53.040;8.600;2023-06-22T09:56:10;101935.34;;;27.32;47.16
80511;BME280;69840;53.040;8.600;2023-06-22T10:00:23;101916.81;;;27.46;45.09
80511;BME280;69840;53.040;8.600;2023-06-22T10:04:35;101910.97;;;27.04;47.24
80511;BME280;69840;53.040;8.600;2023-06-22T10:08:50;101903.72;;;27.26;45.46
80511;BME280;69840;53.040;8.600;2023-06-22T10:13:08;101903.53;;;28.05;45.44
80511;BME280;69840;53.040;8.600;2023-06-22T10:17:20;101896.06;;;28.39;45.00
80511;BME280;69840;53.040;8.600;2023-06-22T10:21:33;101888.91;;;28.81;42.82
80511;BME280;69840;53.040;8.600;2023-06-22T10:25:46;101899.09;;;28.42;42.45
80511;BME280;69840;53.040;8.600;2023-06-22T10:29:58;101892.91;;;28.74;45.00
80511;BME280;69840;53.040;8.600;2023-06-22T10:34:11;101885.19;;;28.17;43.59
80511;BME280;69840;53.040;8.600;2023-06-22T10:38:23;101883.38;;;28.49;43.58
80511;BME280;69840;53.040;8.600;2023-06-22T10:42:36;101885.16;;;28.60;44.55
80511;BME280;69840;53.040;8.600;2023-06-22T10:46:48;101887.97;;;28.97;44.55
80511;BME280;69840;53.040;8.600;2023-06-22T10:51:01;101887.34;;;29.22;42.91
80511;BME280;69840;53.040;8.600;2023-06-22T10:55:13;101885.66;;;29.11;42.83
80511;BME280;69840;53.040;8.600;2023-06-22T10:59:26;101888.00;;;29.82;40.47
80511;BME280;69840;53.040;8.600;2023-06-22T11:03:38;101874.22;;;29.98;39.93
80511;BME280;69840;53.040;8.600;2023-06-22T11:07:51;101878.47;;;30.57;40.04
80511;BME280;69840;53.040;8.600;2023-06-22T11:12:04;101880.69;;;30.75;40.44
80511;BME280;69840;53.040;8.600;2023-06-22T11:16:17;101873.19;;;30.20;43.73
80511;BME280;69840;53.040;8.600;2023-06-22T11:20:29;101863.69;;;30.38;40.17
80511;BME280;69840;53.040;8.600;2023-06-22T11:24:42;101852.56;;;30.64;38.22
80511;BME280;69840;53.040;8.600;2023-06-22T11:28:54;101847.22;;;31.85;37.61
80511;BME280;69840;53.040;8.600;2023-06-22T11:33:07;101840.47;;;32.26;36.03
80511;BME280;69840;53.040;8.600;2023-06-22T11:37:20;101838.16;;;34.44;33.34
80511;BME280;69840;53.040;8.600;2023-06-22T11:41:32;101824.16;;;34.27;32.94
80511;BME280;69840;53.040;8.600;2023-06-22T11:45:45;101818.28;;;34.66;32.14
80511;BME280;69840;53.040;8.600;2023-06-22T11:49:57;101814.56;;;34.25;32.38
80511;BME280;69840;53.040;8.600;2023-06-22T11:54:10;101811.81;;;33.39;32.20
80511;BME280;69840;53.040;8.600;2023-06-22T11:58:22;101815.91;;;32.50;35.40
80511;BME280;69840;53.040;8.600;2023-06-22T12:02:35;101820.31;;;31.32;36.20
80511;BME280;69840;53.040;8.600;2023-06-22T12:06:47;101817.91;;;31.11;40.02
80511;BME280;69840;53.040;8.600;2023-06-22T12:11:00;101807.78;;;30.96;40.03
80511;BME280;69840;53.040;8.600;2023-06-22T12:15:12;101805.84;;;30.41;41.23
80511;BME280;69840;53.040;8.600;2023-06-22T12:19:25;101806.16;;;30.59;40.39
80511;BME280;69840;53.040;8.600;2023-06-22T12:23:37;101793.56;;;30.43;39.60
80511;BME280;69840;53.040;8.600;2023-06-22T12:27:50;101793.22;;;29.99;40.02
80511;BME280;69840;53.040;8.600;2023-06-22T12:32:03;101784.78;;;30.00;40.92
80511;BME280;69840;53.040;8.600;2023-06-22T12:36:15;101776.91;;;29.47;41.13
80511;BME280;69840;53.040;8.600;2023-06-22T12:40:28;101764.41;;;29.51;41.63
80511;BME280;69840;53.040;8.600;2023-06-22T12:44:41;101747.03;;;29.15;41.83
80511;BME280;69840;53.040;8.600;2023-06-22T12:48:53;101744.34;;;28.78;43.92
80511;BME280;69840;53.040;8.600;2023-06-22T12:53:06;101736.09;;;28.68;42.45
80511;BME280;69840;53.040;8.600;2023-06-22T12:57:18;101736.28;;;28.24;45.43
80511;BME280;69840;53.040;8.600;2023-06-22T13:01:31;101731.81;;;28.13;43.40
80511;BME280;69840;53.040;8.600;2023-06-22T13:05:43;101729.94;;;27.91;45.35
80511;BME280;69840;53.040;8.600;2023-06-22T13:09:56;101727.56;;;27.73;45.55
80511;BME280;69840;53.040;8.600;2023-06-22T13:14:09;101734.69;;;28.01;44.69
80511;BME280;69840;53.040;8.600;2023-06-22T13:18:21;101725.66;;;27.96;47.66
80511;BME280;69840;53.040;8.600;2023-06-22T13:22:35;101722.63;;;28.19;44.06
80511;BME280;69840;53.040;8.600;2023-06-22T13:26:48;101726.88;;;28.10;43.64
80511;BME280;69840;53.040;8.600;2023-06-22T13:31:00;101730.94;;;27.80;47.20
80511;BME280;69840;53.040;8.600;2023-06-22T13:35:13;101722.22;;;27.56;47.13
80511;BME280;69840;53.040;8.600;2023-06-22T13:39:25;101716.53;;;27.36;46.01
80511;BME280;69840;53.040;8.600;2023-06-22T13:43:38;101721.06;;;27.31;45.46
80511;BME280;69840;53.040;8.600;2023-06-22T13:47:50;101715.59;;;27.09;45.32
80511;BME280;69840;53.040;8.600;2023-06-22T13:52:03;101716.63;;;27.03;47.15
80511;BME280;69840;53.040;8.600;2023-06-22T13:56:16;101710.13;;;26.87;48.61
80511;BME280;69840;53.040;8.600;2023-06-22T14:00:29;101702.72;;;26.82;46.87
80511;BME280;69840;53.040;8.600;2023-06-22T14:04:41;101690.69;;;26.73;47.79
80511;BME280;69840;53.040;8.600;2023-06-22T14:08:54;101682.44;;;26.68;46.71
80511;BME280;69840;53.040;8.600;2023-06-22T14:13:06;101676.97;;;26.46;48.55
80511;BME280;69840;53.040;8.600;2023-06-22T14:17:19;101675.66;;;26.32;50.39
80511;BME280;69840;53.040;8.600;2023-06-22T14:21:32;101668.25;;;26.28;50.16
80511;BME280;69840;53.040;8.600;2023-06-22T14:25:44;101664.13;;;26.08;51.85
80511;BME280;69840;53.040;8.600;2023-06-22T14:29:59;101662.78;;;25.94;53.22
80511;BME280;69840;53.040;8.600;2023-06-22T14:34:13;101667.84;;;25.74;55.69
80511;BME280;69840;53.040;8.600;2023-06-22T14:38:26;101666.28;;;25.49;56.44
80511;BME280;69840;53.040;8.600;2023-06-22T14:42:38;101664.44;;;25.27;59.58
80511;BME280;69840;53.040;8.600;2023-06-22T14:46:51;101657.44;;;25.14;57.61
80511;BME280;69840;53.040;8.600;2023-06-22T14:51:03;101666.38;;;25.03;58.44
80511;BME280;69840;53.040;8.600;2023-06-22T14:55:16;101648.75;;;25.00;60.54
80511;BME280;69840;53.040;8.600;2023-06-22T14:59:29;101644.50;;;24.81;64.74
80511;BME280;69840;53.040;8.600;2023-06-22T15:03:41;101639.09;;;24.58;64.13
80511;BME280;69840;53.040;8.600;2023-06-22T15:07:54;101642.28;;;24.43;65.59
80511;BME280;69840;53.040;8.600;2023-06-22T15:12:07;101640.50;;;24.25;68.36
80511;BME280;69840;53.040;8.600;2023-06-22T15:16:19;101624.94;;;24.09;69.12
80511;BME280;69840;53.040;8.600;2023-06-22T15:20:32;101614.56;;;23.83;70.63
80511;BME280;69840;53.040;8.600;2023-06-22T15:24:44;101607.56;;;23.63;70.73
80511;BME280;69840;53.040;8.600;2023-06-22T15:28:57;101596.81;;;23.45;74.63
80511;BME280;69840;53.040;8.600;2023-06-22T15:33:09;101590.19;;;23.29;74.42
80511;BME280;69840;53.040;8.600;2023-06-22T15:37:22;101590.59;;;23.44;73.61
80511;BME280;69840;53.040;8.600;2023-06-22T15:41:35;101587.97;;;23.56;73.90
80511;BME280;69840;53.040;8.600;2023-06-22T15:45:47;101589.50;;;23.64;74.72
80511;BME280;69840;53.040;8.600;2023-06-22T15:50:00;101597.66;;;23.75;74.18
80511;BME280;69840;53.040;8.600;2023-06-22T15:54:12;101595.72;;;23.64;74.03
80511;BME280;69840;53.040;8.600;2023-06-22T15:58:25;101601.16;;;23.46;74.06
80511;BME280;69840;53.040;8.600;2023-06-22T16:02:37;101590.69;;;23.38;74.84
80511;BME280;69840;53.040;8.600;2023-06-22T16:06:50;101585.84;;;23.28;75.79
80511;BME280;69840;53.040;8.600;2023-06-22T16:11:04;101587.75;;;23.09;76.62
80511;BME280;69840;53.040;8.600;2023-06-22T16:15:16;101583.16;;;22.73;79.99
80511;BME280;69840;53.040;8.600;2023-06-22T16:19:29;101592.72;;;22.33;80.65
80511;BME280;69840;53.040;8.600;2023-06-22T16:23:44;101586.50;;;22.32;81.60
80511;BME280;69840;53.040;8.600;2023-06-22T16:27:56;101585.22;;;22.35;82.03
80511;BME280;69840;53.040;8.600;2023-06-22T16:32:09;101567.13;;;22.42;81.29
80511;BME280;69840;53.040;8.600;2023-06-22T16:36:22;101552.84;;;22.60;80.53
80511;BME280;69840;53.040;8.600;2023-06-22T16:40:35;101530.53;;;22.89;80.53
80511;BME280;69840;53.040;8.600;2023-06-22T16:44:48;101507.56;;;23.17;77.02
80511;BME280;69840;53.040;8.600;2023-06-22T16:49:00;101493.66;;;23.01;75.29
80511;BME280;69840;53.040;8.600;2023-06-22T16:53:13;101481.84;;;22.84;76.59
80511;BME280;69840;53.040;8.600;2023-06-22T16:57:25;101501.44;;;22.80;75.38
80511;BME280;69840;53.040;8.600;2023-06-22T17:01:48;101492.94;;;22.76;75.67
80511;BME280;69840;53.040;8.600;2023-06-22T17:06:03;101497.31;;;22.77;76.20
80511;BME280;69840;53.040;8.600;2023-06-22T17:10:16;101505.59;;;22.75;76.21
80511;BME280;69840;53.040;8.600;2023-06-22T17:14:29;101523.84;;;22.55;76.81
80511;BME280;69840;53.040;8.600;2023-06-22T17:18:42;101527.47;;;22.49;77.34
80511;BME280;69840;53.040;8.600;2023-06-22T17:22:56;101531.03;;;22.43;76.21
80511;BME280;69840;53.040;8.600;2023-06-22T17:27:08;101518.84;;;22.40;76.72
80511;BME280;69840;53.040;8.600;2023-06-22T17:31:21;101508.16;;;22.34;75.64
80511;BME280;69840;53.040;8.600;2023-06-22T17:35:45;101505.06;;;22.30;75.43
80511;BME280;69840;53.040;8.600;2023-06-22T17:39:58;101485.00;;;22.26;74.89
80511;BME280;69840;53.040;8.600;2023-06-22T17:44:10;101488.84;;;22.19;75.34
80511;BME280;69840;53.040;8.600;2023-06-22T17:48:23;101476.03;;;22.14;76.10
80511;BME280;69840;53.040;8.600;2023-06-22T17:52:35;101477.75;;;22.09;77.09
80511;BME280;69840;53.040;8.600;2023-06-22T17:56:51;101483.84;;;21.97;77.39
80511;BME280;69840;53.040;8.600;2023-06-22T18:01:04;101481.13;;;21.97;76.39
80511;BME280;69840;53.040;8.600;2023-06-22T18:05:16;101477.06;;;21.88;76.87
80511;BME280;69840;53.040;8.600;2023-06-22T18:09:31;101482.91;;;21.85;77.34
80511;BME280;69840;53.040;8.600;2023-06-22T18:13:44;101478.41;;;21.79;77.53
80511;BME280;69840;53.040;8.600;2023-06-22T18:17:58;101481.16;;;21.73;78.50
80511;BME280;69840;53.040;8.600;2023-06-22T18:22:11;101476.84;;;21.72;79.41
80511;BME280;69840;53.040;8.600;2023-06-22T18:26:25;101465.28;;;21.64;77.93
80511;BME280;69840;53.040;8.600;2023-06-22T18:30:38;101469.84;;;21.64;79.88
80511;BME280;69840;53.040;8.600;2023-06-22T18:34:50;101479.47;;;21.53;81.37
80511;BME280;69840;53.040;8.600;2023-06-22T18:39:04;101483.28;;;21.39;82.53
80511;BME280;69840;53.040;8.600;2023-06-22T18:43:21;101496.22;;;21.24;84.69
80511;BME280;69840;53.040;8.600;2023-06-22T18:47:34;101510.03;;;20.89;87.09
80511;BME280;69840;53.040;8.600;2023-06-22T18:56:11;101541.09;;;20.72;88.98
80511;BME280;69840;53.040;8.600;2023-06-22T19:00:30;101547.09;;;20.67;90.10
80511;BME280;69840;53.040;8.600;2023-06-22T19:04:44;101546.31;;;20.54;90.00
80511;BME280;69840;53.040;8.600;2023-06-22T19:09:12;101542.59;;;20.35;90.35
80511;BME280;69840;53.040;8.600;2023-06-22T19:13:27;101547.41;;;20.13;90.63
80511;BME280;69840;53.040;8.600;2023-06-22T19:17:43;101531.72;;;19.97;91.57
80511;BME280;69840;53.040;8.600;2023-06-22T19:21:59;101529.63;;;19.86;92.37
80511;BME280;69840;53.040;8.600;2023-06-22T19:26:17;101528.19;;;19.77;93.27
80511;BME280;69840;53.040;8.600;2023-06-22T19:30:30;101525.50;;;19.70;93.17
80511;BME280;69840;53.040;8.600;2023-06-22T19:34:45;101519.31;;;19.63;94.34
80511;BME280;69840;53.040;8.600;2023-06-22T19:38:58;101513.53;;;19.59;95.27
80511;BME280;69840;53.040;8.600;2023-06-22T19:43:15;101510.63;;;19.54;95.07
80511;BME280;69840;53.040;8.600;2023-06-22T19:47:28;101507.94;;;19.54;95.40
80511;BME280;69840;53.040;8.600;2023-06-22T19:51:40;101512.69;;;19.52;96.06
80511;BME280;69840;53.040;8.600;2023-06-22T19:55:53;101524.66;;;19.50;95.88
80511;BME280;69840;53.040;8.600;2023-06-22T20:00:06;101525.88;;;19.47;96.28
80511;BME280;69840;53.040;8.600;2023-06-22T20:04:23;101518.22;;;19.44;96.37
80511;BME280;69840;53.040;8.600;2023-06-22T20:08:46;101520.88;;;19.38;96.65
80511;BME280;69840;53.040;8.600;2023-06-22T20:12:59;101513.47;;;19.33;98.26
80511;BME280;69840;53.040;8.600;2023-06-22T20:17:14;101509.53;;;19.29;98.16
80511;BME280;69840;53.040;8.600;2023-06-22T20:21:27;101513.00;;;19.23;98.96
80511;BME280;69840;53.040;8.600;2023-06-22T20:25:40;101494.66;;;19.13;99.61
80511;BME280;69840;53.040;8.600;2023-06-22T20:29:54;101500.19;;;18.99;99.87
80511;BME280;69840;53.040;8.600;2023-06-22T20:34:07;101494.59;;;18.87;99.85
80511;BME280;69840;53.040;8.600;2023-06-22T20:38:19;101493.47;;;18.68;99.33
80511;BME280;69840;53.040;8.600;2023-06-22T20:42:32;101498.78;;;18.62;99.21
80511;BME280;69840;53.040;8.600;2023-06-22T20:46:44;101496.31;;;18.60;99.59
80511;BME280;69840;53.040;8.600;2023-06-22T20:50:57;101486.78;;;18.57;99.92
80511;BME280;69840;53.040;8.600;2023-06-22T20:55:10;101490.50;;;18.56;100.00
80511;BME280;69840;53.040;8.600;2023-06-22T20:59:23;101482.44;;;18.50;100.00
80511;BME280;69840;53.040;8.600;2023-06-22T21:03:35;101480.53;;;18.44;100.00
80511;BME280;69840;53.040;8.600;2023-06-22T21:07:48;101476.81;;;18.38;100.00
80511;BME280;69840;53.040;8.600;2023-06-22T21:12:01;101477.59;;;18.32;100.00
80511;BME280;69840;53.040;8.600;2023-06-22T21:16:14;101479.63;;;18.23;100.00
80511;BME280;69840;53.040;8.600;2023-06-22T21:20:27;101485.94;;;18.16;100.00
80511;BME280;69840;53.040;8.600;2023-06-22T21:24:40;101485.47;;;18.06;100.00
80511;BME280;69840;53.040;8.600;2023-06-22T21:28:53;101489.72;;;17.94;99.84
80511;BME280;69840;53.040;8.600;2023-06-22T21:33:06;101497.25;;;17.83;100.00
80511;BME280;69840;53.040;8.600;2023-06-22T21:37:19;101493.25;;;17.73;100.00
80511;BME280;69840;53.040;8.600;2023-06-22T21:41:32;101503.53;;;17.54;99.77
80511;BME280;69840;53.040;8.600;2023-06-22T21:45:45;101494.75;;;17.39;99.88
80511;BME280;69840;53.040;8.600;2023-06-22T21:49:57;101491.13;;;17.26;99.65
80511;BME280;69840;53.040;8.600;2023-06-22T21:54:10;101491.56;;;17.08;98.84
80511;BME280;69840;53.040;8.600;2023-06-22T21:58:23;101488.38;;;16.98;98.83
80511;BME280;69840;53.040;8.600;2023-06-22T22:02:37;101479.06;;;16.94;99.36
80511;BME280;69840;53.040;8.600;2023-06-22T22:06:50;101481.66;;;16.87;99.57